Tiempo atmosférico en la estación meteorológica de Monreal/Elo, Navarra (585 m.)



Fecha
DESCASC
Temp. máxima en grados centígrados (hora)
DESCASC
Temp. mínima en grados centígrados (hora)
DESCASC
Temp. media en grados centígrados
DESCASC
Racha de viento máxima en m/sg (hora)
DESCASC
Velocidad máxima media en intervalos de 10 minutos(hora)
DESCASC
Precipitaciones diarias en mm
DESCASC
Precipitaciones de 00:00 a 06:00 en mm
DESCASC
Precipitaciones de 06:00 a 12:00 en mm
DESCASC
Precipitaciones de 12:00 a 18:00 en mm
DESCASC
Precipitaciones de 18:00 a 24:00 en mm
DESCASC
14-08-2020 31.9 (17:40) 12.1 (07:00) 22 14.17 (22:50) 10.83 (22:50) 28.4 0 0 0 28.4
13-08-2020 28.1 (16:30) 15.7 (23:20) 21.9 11.11 (18:50) 8.33 (18:40) 0 0 0 0 0
12-08-2020 28.3 (14:40) 17.2 (05:00) 22.8 15.83 (10:20) 10.83 (10:50) 0.2 0.2 0 0 0
11-08-2020 32.4 (15:50) 21.1 (00:00) 26.8 13.61 (16:10) 10 (16:40) 0 0 0 0 0
10-08-2020 34.6 (15:50) 17.3 (00:00) 25.9 21.67 (00:10) 14.44 (00:10) 0 0 0 0 0
09-08-2020 36.2 (16:30) 17.2 (00:00) 26.7 25 (21:00) 16.39 (23:59) 2.2 0.2 0 0.2 1.8
08-08-2020 36.4 (16:50) 16.3 (00:00) 26.4 18.33 (23:10) 11.11 (23:20) 0 0 0 0 0
07-08-2020 39.2 (17:10) 20.7 (00:00) 30 24.17 (20:20) 12.22 (21:00) 3.8 0 0 0 3.8
06-08-2020 36.3 (17:40) 13.8 (00:00) 25 9.17 (14:10) 5.56 (14:20) 0 0 0 0 0
05-08-2020 33.3 (18:10) 9.9 (00:00) 21.6 8.89 (01:30) 6.67 (01:20) 0 0 0 0 0
04-08-2020 23.4 (17:00) 13.2 (04:50) 18.3 15.28 (15:10) 10.28 (15:00) 0 0 0 0 0
03-08-2020 21.6 (15:10) 14.2 (06:10) 17.9 15.56 (13:10) 11.67 (14:50) 0 0 0 0 0
02-08-2020 22.4 (15:00) 15.4 (00:00) 18.9 17.22 (15:50) 11.11 (16:30) 0 0 0 0 0
01-08-2020 25.5 (14:30) 18.4 (00:00) 21.9 14.72 (17:30) 11.11 (16:10) 0 0 0 0 0
31-07-2020 37.3 (16:20) 20.3 (04:00) 28.8 12.5 (05:30) 9.72 (06:40) 0 0 0 0 0
30-07-2020 37.5 (16:50) 17.3 (00:00) 27.4 21.94 (18:40) 9.44 (18:20) 2.8 0 0 0 2.8
29-07-2020 33.6 (17:40) 16 (00:00) 24.8 10.56 (20:10) 8.33 (20:10) 0.2 0 0.2 0 0
28-07-2020 28.2 (15:40) 17.3 (00:00) 22.8 13.61 (16:00) 10 (18:30) 0 0 0 0 0
27-07-2020 37.5 (16:40) 16.2 (00:00) 26.9 16.11 (21:20) 10.83 (21:20) 0 0 0 0 0
26-07-2020 31.4 (17:40) 15.2 (00:00) 23.3 8.89 (19:00) 6.67 (21:00) 0 0 0 0 0
25-07-2020 33 (17:40) 13.2 (00:00) 23.1 12.78 (22:00) 9.72 (21:10) 0 0 0 0 0
24-07-2020 25.3 (15:30) 14.7 (00:00) 20 14.44 (17:40) 9.72 (17:40) 0 0 0 0 0
23-07-2020 27.9 (15:10) 17 (00:00) 22.4 13.61 (17:00) 10.56 (17:00) 0 0 0 0 0
22-07-2020 34.3 (16:10) 15.8 (05:50) 25 10.56 (19:50) 8.33 (19:50) 0 0 0 0 0
21-07-2020 35.9 (16:40) 13.7 (00:00) 24.8 15.56 (21:20) 10 (19:30) 2.6 0 0 0 2.6
20-07-2020 34.9 (16:10) 15.1 (07:10) 25 12.78 (20:10) 10 (20:00) 0 0 0 0 0
19-07-2020 34.5 (17:20) 13 (00:00) 23.8 10.56 (20:40) 7.78 (23:20) 0 0 0 0 0
18-07-2020 31.1 (16:30) 12.9 (00:00) 22 10.28 (17:30) 6.94 (17:50) 0 0 0 0 0
17-07-2020 21.1 (16:40) 13.4 (00:00) 17.3 19.17 (16:40) 12.78 (17:40) 0 0 0 0 0
16-07-2020 21.5 (15:20) 12.8 (00:00) 17.2 15.56 (13:40) 11.39 (20:00) 0 0 0 0 0

Gráficas

Temp. máximas Temp. mínimas Temp. medias Precipitaciones Rachas de viento máximas Velocidades máximas media en intervalos de 10 minutos

Datos horarios

Fecha y hora oficial Temperatura (ºC) Velocidad del viento (km/h) Dirección del viento Racha (km/h) Dirección de racha Precipitación (mm) Presión (hPa) Tendencia (hPa) Humedad (%)
2020-08-14 23:00:00 18.8 32 Noroeste 51 Oeste 2.6 -- -- 90
2020-08-14 22:00:00 22.3 20 Noroeste 31 Oeste 0 -- -- 67
2020-08-14 21:00:00 23.8 23 Noroeste 35 Noroeste 0 -- -- 63
2020-08-14 20:00:00 26 27 Noroeste 38 Oeste 0 -- -- 56
2020-08-14 19:00:00 29.8 10 Sudeste 23 Sur 0 -- -- 32
2020-08-14 18:00:00 30.8 13 Sur 23 Sudeste 0 -- -- 30
2020-08-14 17:00:00 31.6 12 Sur 26 Sur 0 -- -- 30
2020-08-14 16:00:00 30.7 17 Sudeste 36 Sur 0 -- -- 34
2020-08-14 15:00:00 30.4 16 Sudeste 34 Sur 0 -- -- 43
2020-08-14 14:00:00 29 15 Sur 27 Sur 0 -- -- 43
2020-08-14 13:00:00 26.5 12 Noroeste 20 Oeste 0 -- -- 50
2020-08-14 12:00:00 23.7 12 Noroeste 18 Noroeste 0 -- -- 57
2020-08-14 11:00:00 21 9 Noroeste 14 Noroeste 0 -- -- 63
2020-08-14 10:00:00 19.1 3 Noroeste 7 Norte 0 -- -- 70
2020-08-14 09:00:00 16.3 2 Noroeste 6 Sudeste 0 -- -- 82
2020-08-14 08:00:00 12.6 5 Sudeste 8 Sudeste 0 -- -- 92
2020-08-14 07:00:00 12.1 6 Sudeste 8 Sudeste 0 -- -- 93
2020-08-14 06:00:00 12.8 2 Sudeste 6 Sudeste 0 -- -- 92
2020-08-14 05:00:00 13.5 0 Calma 16 Noroeste 0 -- -- 89
2020-08-14 04:00:00 14.5 12 Noroeste 18 Noroeste 0 -- -- 87
2020-08-14 03:00:00 14.9 15 Noroeste 24 Noroeste 0 -- -- 86
2020-08-14 02:00:00 15.2 17 Noroeste 23 Noroeste 0 -- -- 85
2020-08-14 01:00:00 15.4 18 Noroeste 28 Noroeste 0 -- -- 85
2020-08-14 00:00:00 15.7 21 Noroeste 29 Noroeste 0 -- -- 85
2020-08-13 23:00:00 15.9 20 Noroeste 26 Noroeste 0 -- -- 85
2020-08-13 22:00:00 16.9 19 Noroeste 33 Noroeste 0 -- -- 81
2020-08-13 21:00:00 18.8 25 Noroeste 36 Noroeste 0 -- -- 74
2020-08-13 20:00:00 21.4 26 Noroeste 36 Noroeste 0 -- -- 64
2020-08-13 19:00:00 23.9 24 Noroeste 40 Noroeste 0 -- -- 57
2020-08-13 18:00:00 25.7 27 Noroeste 38 Noroeste 0 -- -- 50
2020-08-13 17:00:00 26.6 21 Noroeste 32 Oeste 0 -- -- 47
2020-08-13 16:00:00 26.3 19 Noroeste 32 Noroeste 0 -- -- 47
2020-08-13 15:00:00 26.6 14 Noroeste 27 Noroeste 0 -- -- 47
2020-08-13 14:00:00 25.6 17 Noroeste 28 Oeste 0 -- -- 49
2020-08-13 13:00:00 23.4 19 Noroeste 32 Oeste 0 -- -- 57
2020-08-13 12:00:00 22 20 Noroeste 30 Noroeste 0 -- -- 65
2020-08-13 11:00:00 19.6 21 Noroeste 30 Noroeste 0 -- -- 75
2020-08-13 10:00:00 19.6 19 Noroeste 27 Noroeste 0 -- -- 74
2020-08-13 09:00:00 17.3 11 Noroeste 15 Noroeste 0 -- -- 83
2020-08-13 08:00:00 15.9 10 Noroeste 16 Noroeste 0 -- -- 88
2020-08-13 07:00:00 16.1 10 Noroeste 14 Noroeste 0 -- -- 86
2020-08-13 06:00:00 16.5 10 Noroeste 13 Norte 0 -- -- 84
2020-08-13 05:00:00 16.9 5 Noroeste 6 Noroeste 0 -- -- 78
2020-08-13 04:00:00 17.2 0 Calma 3 Noroeste 0 -- -- 75
2020-08-13 03:00:00 17.5 3 Sudeste 7 Sudeste 0 -- -- 73
2020-08-13 02:00:00 17.7 3 Sudeste 8 Norte 0 -- -- 72
2020-08-13 01:00:00 18.2 5 Sudeste 11 Sudeste 0 -- -- 70
2020-08-13 00:00:00 18.7 9 Sudeste 12 Sudeste 0 -- -- 71
2020-08-12 23:00:00 19 8 Sudeste 11 Sudeste 0 -- -- 69
2020-08-12 22:00:00 19.9 2 Sur 16 Nordeste 0 -- -- 63
2020-08-12 21:00:00 19.8 8 Oeste 28 Noroeste 0 -- -- 68
2020-08-12 20:00:00 22.9 3 Norte 16 Sudoeste 0 -- -- 51
2020-08-12 19:00:00 22.8 4 Este 31 Noroeste 0 -- -- 54
2020-08-12 18:00:00 22.4 8 Sur 34 Noroeste 0 -- -- 59
2020-08-12 17:00:00 24.9 12 Sudoeste 41 Sur 0 -- -- 47
2020-08-12 16:00:00 27 20 Sudeste 41 Sudeste 0 -- -- 41
2020-08-12 15:00:00 27.5 27 Sudeste 48 Sudeste 0 -- -- 41
2020-08-12 14:00:00 27.4 35 Sur 48 Sur 0 -- -- 43
2020-08-12 13:00:00 26.8 26 Sur 43 Sudeste 0 -- -- 45
2020-08-12 12:00:00 24.8 36 Sudeste 50 Sudeste 0 -- -- 52
2020-08-12 11:00:00 22.8 38 Sudeste 57 Sudeste 0 -- -- 61
2020-08-12 10:00:00 21.5 33 Sudeste 49 Sudeste 0 -- -- 66
2020-08-12 09:00:00 19.7 18 Sudeste 29 Sudeste 0 -- -- 76
2020-08-12 08:00:00 17.7 17 Sudeste 22 Sudeste 0 -- -- 85
2020-08-12 07:00:00 17.5 5 Sudeste 8 Sudeste 0 -- -- 88
2020-08-12 06:00:00 17.8 2 Este 12 Sur 0 -- -- 84
2020-08-12 05:00:00 17.2 11 Sudeste 19 Este 0 -- -- 90
2020-08-12 04:00:00 18.6 16 Este 21 Este 0.2 -- -- 82
2020-08-12 03:00:00 19.7 9 Sur 26 Sudoeste 0 -- -- 75
2020-08-12 02:00:00 21.2 17 Sudoeste 22 Sudoeste 0 -- -- 65
2020-08-12 01:00:00 21.2 5 Norte 28 Sur 0 -- -- 64
2020-08-12 00:00:00 21.6 8 Sudeste 13 Sudeste 0 -- -- 63
2020-08-11 23:00:00 21.1 8 Sudeste 11 Sudeste 0 -- -- 69
2020-08-11 22:00:00 21.9 5 Sudeste 9 Sudoeste 0 -- -- 66
2020-08-11 21:00:00 23 6 Sudoeste 12 Noroeste 0 -- -- 63
2020-08-11 20:00:00 24.1 10 Noroeste 30 Noroeste 0 -- -- 58
2020-08-11 19:00:00 25 21 Noroeste 30 Noroeste 0 -- -- 57
2020-08-11 18:00:00 26.8 21 Sudeste 42 Este 0 -- -- 43
2020-08-11 17:00:00 30.8 32 Sudeste 49 Sudeste 0 -- -- 30
2020-08-11 16:00:00 31.5 32 Sudeste 44 Sudeste 0 -- -- 31
2020-08-11 15:00:00 30.2 31 Sur 44 Sudeste 0 -- -- 32
2020-08-11 14:00:00 31.4 17 Sur 26 Sur 0 -- -- 35
2020-08-11 13:00:00 27 3 Sudoeste 26 Sudoeste 0 -- -- 48
2020-08-11 12:00:00 25.1 9 Sur 34 Sudeste 0 -- -- 54
2020-08-11 11:00:00 24.4 18 Sudeste 30 Sudeste 0 -- -- 51
2020-08-11 10:00:00 23.7 18 Sur 28 Sur 0 -- -- 54
2020-08-11 09:00:00 21.7 17 Sudeste 43 Este 0 -- -- 62
2020-08-11 08:00:00 23.6 28 Sudeste 40 Sur 0 -- -- 50
2020-08-11 07:00:00 23.5 22 Sudeste 29 Sudeste 0 -- -- 52
2020-08-11 06:00:00 24.1 13 Este 18 Este 0 -- -- 48
2020-08-11 05:00:00 22.7 8 Sudeste 13 Sudeste 0 -- -- 54
2020-08-11 04:00:00 22 9 Sudeste 15 Sudeste 0 -- -- 56
2020-08-11 03:00:00 22.4 10 Sudeste 12 Sudeste 0 -- -- 53
2020-08-11 02:00:00 24.9 5 Sudeste 14 Este 0 -- -- 43
2020-08-11 01:00:00 23.4 8 Sudeste 17 Sudeste 0 -- -- 49
2020-08-11 00:00:00 23.2 10 Sudeste 15 Sudeste 0 -- -- 50
2020-08-10 23:00:00 23.4 10 Sudeste 15 Sudeste 0 -- -- 51
2020-08-10 22:00:00 24.5 9 Sudeste 21 Sudeste 0 -- -- 48
2020-08-10 21:00:00 27.3 14 Sudeste 35 Sudeste 0 -- -- 42
2020-08-10 20:00:00 29.2 29 Sudeste 41 Este 0 -- -- 37
2020-08-10 19:00:00 30.2 33 Sudeste 55 Sudeste 0 -- -- 31
2020-08-10 18:00:00 31.3 27 Sudeste 63 Sur 0 -- -- 33
2020-08-10 17:00:00 31 44 Sudeste 67 Sudeste 0 -- -- 35
2020-08-10 16:00:00 33.5 33 Sur 46 Sur 0 -- -- 28
2020-08-10 15:00:00 32.9 30 Sur 42 Sudeste 0 -- -- 29
2020-08-10 14:00:00 33.1 35 Sudeste 47 Sudeste 0 -- -- 29
2020-08-10 13:00:00 32 22 Sudeste 40 Sudeste 0 -- -- 33
2020-08-10 12:00:00 27.4 9 Noroeste 16 Noroeste 0 -- -- 54
2020-08-10 11:00:00 24.5 8 Noroeste 15 Noroeste 0 -- -- 63
2020-08-10 10:00:00 24 2 Sudeste 8 Este 0 -- -- 60
2020-08-10 09:00:00 19.2 3 Sudeste 9 Sudeste 0 -- -- 83
2020-08-10 08:00:00 18.2 5 Norte 9 Norte 0 -- -- 85
2020-08-10 07:00:00 17.4 5 Sudeste 9 Sudeste 0 -- -- 80
2020-08-10 06:00:00 18.3 0 Calma 10 Sudeste 0 -- -- 76
2020-08-10 05:00:00 18 9 Sudeste 11 Sudeste 0 -- -- 80
2020-08-10 04:00:00 19.5 5 Sudeste 13 Sudeste 0 -- -- 74
2020-08-10 03:00:00 21 8 Sudeste 13 Sudeste 0 -- -- 68
2020-08-10 02:00:00 21.8 6 Sudeste 22 Sur 0 -- -- 62
2020-08-10 01:00:00 24.8 15 Sur 78 Este 0 -- -- 49
2020-08-10 00:00:00 25.6 59 Este 73 Este 0.2 -- -- 51
2020-08-09 23:00:00 22.7 19 Este 36 Sur 0.4 -- -- 72
2020-08-09 22:00:00 21.4 22 Sur 75 Sur 1 -- -- 74
2020-08-09 21:00:00 25.7 42 Sur 90 Sudoeste 0.2 -- -- 58
2020-08-09 20:00:00 31.4 6 Sur 18 Sudoeste 0 -- -- 38
2020-08-09 19:00:00 33.3 12 Sur 32 Sudeste 0 -- -- 31
2020-08-09 18:00:00 33.9 26 Sudeste 37 Este 0 -- -- 29
2020-08-09 17:00:00 35.4 19 Sudeste 44 Sudeste 0 -- -- 29
2020-08-09 16:00:00 36.1 19 Sudeste 46 Sudeste 0 -- -- 29
2020-08-09 15:00:00 34.1 23 Sudeste 35 Este 0 -- -- 36
2020-08-09 14:00:00 27.6 8 Sudeste 14 Noroeste 0.2 -- -- 57
2020-08-09 13:00:00 27.7 9 Noroeste 17 Sudoeste 0 -- -- 55
2020-08-09 12:00:00 27.5 15 Noroeste 22 Oeste 0 -- -- 54
2020-08-09 11:00:00 24.7 11 Noroeste 18 Noroeste 0 -- -- 65
2020-08-09 10:00:00 24.7 4 Noroeste 6 Oeste 0 -- -- 64
2020-08-09 09:00:00 20.4 4 Norte 7 Sudeste 0 -- -- 75
2020-08-09 08:00:00 18.2 0 Calma 9 Este 0 -- -- 81
2020-08-09 07:00:00 18.9 9 Este 12 Este 0 -- -- 77
2020-08-09 06:00:00 17.7 8 Sudeste 10 Este 0 -- -- 83
2020-08-09 05:00:00 18 5 Sudeste 10 Este 0 -- -- 81
2020-08-09 04:00:00 19.1 8 Este 14 Este 0 -- -- 79
2020-08-09 03:00:00 20.5 9 Este 12 Este 0 -- -- 73
2020-08-09 02:00:00 20.1 6 Sudeste 14 Sudeste 0 -- -- 80
2020-08-09 01:00:00 20.1 13 Noroeste 29 Norte 0.2 -- -- 79
2020-08-09 00:00:00 21.4 20 Norte 66 Noroeste 0 -- -- 79
2020-08-08 23:00:00 26.6 33 Oeste 57 Oeste 0 -- -- 52
2020-08-08 22:00:00 27.2 21 Noroeste 28 Noroeste 0 -- -- 60
2020-08-08 21:00:00 28.9 24 Noroeste 33 Noroeste 0 -- -- 53
2020-08-08 20:00:00 31.8 13 Noroeste 25 Norte 0 -- -- 44
2020-08-08 19:00:00 35.1 14 Noroeste 20 Noroeste 0 -- -- 30
2020-08-08 18:00:00 36.1 12 Noroeste 23 Noroeste 0 -- -- 30
2020-08-08 17:00:00 36.4 11 Noroeste 22 Noroeste 0 -- -- 31
2020-08-08 16:00:00 36.3 11 Noroeste 24 Noroeste 0 -- -- 31
2020-08-08 15:00:00 35.6 15 Oeste 27 Sur 0 -- -- 33
2020-08-08 14:00:00 34.8 17 Sudoeste 27 Sur 0 -- -- 30
2020-08-08 13:00:00 30.6 12 Noroeste 17 Noroeste 0 -- -- 44
2020-08-08 12:00:00 28.4 6 Oeste 14 Noroeste 0 -- -- 48
2020-08-08 11:00:00 25.6 6 Noroeste 12 Noroeste 0 -- -- 58
2020-08-08 10:00:00 23 6 Noroeste 9 Noroeste 0 -- -- 64
2020-08-08 09:00:00 20.1 0 Calma 6 Sudeste 0 -- -- 76
2020-08-08 08:00:00 16.8 6 Sudeste 8 Sudeste 0 -- -- 88
2020-08-08 07:00:00 16.4 8 Sudeste 9 Sudeste 0 -- -- 89
2020-08-08 06:00:00 16.8 5 Sudeste 9 Sudeste 0 -- -- 87
2020-08-08 05:00:00 17.2 9 Sudeste 11 Sudeste 0 -- -- 86
2020-08-08 04:00:00 19.3 5 Sudeste 10 Este 0 -- -- 76
2020-08-08 03:00:00 19.9 7 Sudeste 14 Este 0 -- -- 77
2020-08-08 02:00:00 21 9 Este 21 Sur 0 -- -- 74
2020-08-08 01:00:00 21.6 18 Sur 62 Este 0 -- -- 70
2020-08-08 00:00:00 25.2 23 Sur 42 Sur 0 -- -- 50
2020-08-07 23:00:00 22.7 36 Sudoeste 71 Sudoeste 0.6 -- -- 64
2020-08-07 22:00:00 21.6 15 Este 54 Sudoeste 0.6 -- -- 72
2020-08-07 21:00:00 27.3 44 Oeste 87 Oeste 2.6 -- -- 41
2020-08-07 20:00:00 29.7 22 Noroeste 35 Noroeste 0 -- -- 33
2020-08-07 19:00:00 29.6 29 Noroeste 58 Oeste 0 -- -- 34
2020-08-07 18:00:00 36.9 5 Nordeste 24 Sur 0 -- -- 23
2020-08-07 17:00:00 38.4 13 Sur 28 Sudeste 0 -- -- 23
2020-08-07 16:00:00 38.4 14 Sur 28 Sudeste 0 -- -- 24
2020-08-07 15:00:00 37.4 18 Sudeste 31 Sur 0 -- -- 25
2020-08-07 14:00:00 36 17 Sur 30 Sur 0 -- -- 29
2020-08-07 13:00:00 34.1 16 Sudeste 32 Sudeste 0 -- -- 29
2020-08-07 12:00:00 32.5 18 Sudeste 29 Este 0 -- -- 34
2020-08-07 11:00:00 30.6 14 Sudeste 21 Sudeste 0 -- -- 39
2020-08-07 10:00:00 27 4 Noroeste 14 Noroeste 0 -- -- 50
2020-08-07 09:00:00 23.7 9 Noroeste 12 Noroeste 0 -- -- 57
2020-08-07 08:00:00 23.3 3 Sudeste 16 Sudeste 0 -- -- 52
2020-08-07 07:00:00 22.8 12 Sudeste 19 Sudeste 0 -- -- 55
2020-08-07 06:00:00 22.6 15 Sudeste 23 Sudeste 0 -- -- 57
2020-08-07 05:00:00 23.7 17 Sur 23 Sudeste 0 -- -- 50
2020-08-07 04:00:00 24.5 19 Sudeste 27 Sudeste 0 -- -- 51
2020-08-07 03:00:00 25.4 19 Sudeste 25 Sudeste 0 -- -- 44
2020-08-07 02:00:00 26.9 19 Sudeste 27 Sudeste 0 -- -- 40
2020-08-07 01:00:00 26.3 13 Sudeste 17 Sudeste 0 -- -- 39
2020-08-07 00:00:00 26.1 7 Sudeste 15 Sudeste 0 -- -- 37
2020-08-06 23:00:00 27 9 Sudeste 12 Sudeste 0 -- -- 36
2020-08-06 22:00:00 27.8 7 Sudeste 10 Sudeste 0 -- -- 35
2020-08-06 21:00:00 29.6 5 Sudeste 15 Sudoeste 0 -- -- 33
2020-08-06 20:00:00 34.2 11 Sur 22 Sur 0 -- -- 26
2020-08-06 19:00:00 35.7 12 Sur 25 Sudeste 0 -- -- 23
2020-08-06 18:00:00 36.2 6 Sur 27 Sur 0 -- -- 23
2020-08-06 17:00:00 35.5 7 Este 26 Sudeste 0 -- -- 24
2020-08-06 16:00:00 35.5 17 Sudeste 31 Sudeste 0 -- -- 23
2020-08-06 15:00:00 34.6 17 Sudeste 33 Sur 0 -- -- 27
2020-08-06 14:00:00 32.9 16 Sudeste 30 Sudeste 0 -- -- 34
2020-08-06 13:00:00 31.1 16 Sudeste 29 Este 0 -- -- 38
2020-08-06 12:00:00 28.7 19 Sudeste 26 Sudeste 0 -- -- 46
2020-08-06 11:00:00 26.7 6 Norte 18 Nordeste 0 -- -- 48
2020-08-06 10:00:00 23.2 5 Noroeste 8 Noroeste 0 -- -- 54
2020-08-06 09:00:00 19.9 2 Norte 8 Este 0 -- -- 61
2020-08-06 08:00:00 14.4 5 Sudeste 7 Sudeste 0 -- -- 78
2020-08-06 07:00:00 13.9 4 Este 6 Sudeste 0 -- -- 78
2020-08-06 06:00:00 14.2 5 Sudeste 10 Sudeste 0 -- -- 76
2020-08-06 05:00:00 15.2 2 Oeste 6 Sudeste 0 -- -- 72
2020-08-06 04:00:00 15.1 6 Este 13 Sudeste 0 -- -- 72
2020-08-06 03:00:00 14.7 10 Sudeste 13 Sudeste 0 -- -- 73
2020-08-06 02:00:00 15.3 10 Sudeste 12 Sudeste 0 -- -- 70
2020-08-06 01:00:00 16.8 6 Sudeste 9 Sudeste 0 -- -- 65
2020-08-06 00:00:00 18.9 0 Calma 15 Noroeste 0 -- -- 59
2020-08-05 23:00:00 22.3 12 Norte 18 Norte 0 -- -- 48
2020-08-05 22:00:00 23.4 13 Norte 26 Norte 0 -- -- 48
2020-08-05 21:00:00 26 21 Norte 30 Norte 0 -- -- 44
2020-08-05 20:00:00 28.8 20 Norte 31 Noroeste 0 -- -- 38
2020-08-05 19:00:00 30.9 18 Noroeste 30 Noroeste 0 -- -- 29
2020-08-05 18:00:00 32.5 14 Noroeste 27 Noroeste 0 -- -- 21
2020-08-05 17:00:00 32.5 15 Noroeste 23 Noroeste 0 -- -- 26
2020-08-05 16:00:00 31.3 14 Noroeste 26 Oeste 0 -- -- 31
2020-08-05 15:00:00 31 13 Oeste 24 Oeste 0 -- -- 33
2020-08-05 14:00:00 28.8 13 Noroeste 23 Noroeste 0 -- -- 36
2020-08-05 13:00:00 28.1 12 Oeste 21 Noroeste 0 -- -- 38
2020-08-05 12:00:00 25.7 3 Oeste 11 Sudoeste 0 -- -- 44
2020-08-05 11:00:00 21.9 5 Noroeste 13 Noroeste 0 -- -- 57
2020-08-05 10:00:00 20 2 Oeste 5 Sur 0 -- -- 62
2020-08-05 09:00:00 14.7 4 Sudeste 8 Sudeste 0 -- -- 83
2020-08-05 08:00:00 10.5 7 Sudeste 9 Sudeste 0 -- -- 94
2020-08-05 07:00:00 10.3 6 Sudeste 9 Sudeste 0 -- -- 94
2020-08-05 06:00:00 10.9 6 Sudeste 8 Sudeste 0 -- -- 93
2020-08-05 05:00:00 12.4 4 Oeste 19 Noroeste 0 -- -- 91
2020-08-05 04:00:00 13.4 14 Noroeste 24 Noroeste 0 -- -- 88
2020-08-05 03:00:00 13.9 19 Noroeste 27 Noroeste 0 -- -- 88
2020-08-05 02:00:00 14.5 22 Noroeste 32 Noroeste 0 -- -- 87
2020-08-05 01:00:00 15 20 Noroeste 31 Noroeste 0 -- -- 85
2020-08-05 00:00:00 15.3 22 Noroeste 34 Noroeste 0 -- -- 83
2020-08-04 23:00:00 16.1 21 Noroeste 39 Noroeste 0 -- -- 79
2020-08-04 22:00:00 17.6 24 Noroeste 41 Noroeste 0 -- -- 71
2020-08-04 21:00:00 19.5 31 Noroeste 49 Noroeste 0 -- -- 61
2020-08-04 20:00:00 21.3 34 Noroeste 45 Noroeste 0 -- -- 52
2020-08-04 19:00:00 22.2 35 Norte 51 Noroeste 0 -- -- 46
2020-08-04 18:00:00 22.7 36 Noroeste 48 Noroeste 0 -- -- 45
2020-08-04 17:00:00 23.4 24 Norte 49 Noroeste 0 -- -- 44
2020-08-04 16:00:00 22.9 35 Norte 55 Noroeste 0 -- -- 45
2020-08-04 15:00:00 22.3 37 Norte 55 Noroeste 0 -- -- 45
2020-08-04 14:00:00 22 34 Norte 47 Noroeste 0 -- -- 50
2020-08-04 13:00:00 22.1 26 Noroeste 45 Norte 0 -- -- 51
2020-08-04 12:00:00 20.9 24 Noroeste 41 Noroeste 0 -- -- 56
2020-08-04 11:00:00 19.3 26 Noroeste 39 Noroeste 0 -- -- 62
2020-08-04 10:00:00 17.9 23 Noroeste 36 Noroeste 0 -- -- 68
2020-08-04 09:00:00 16.3 19 Noroeste 31 Noroeste 0 -- -- 76
2020-08-04 08:00:00 14.8 21 Noroeste 29 Noroeste 0 -- -- 85
2020-08-04 07:00:00 14.4 18 Noroeste 31 Noroeste 0 -- -- 89
2020-08-04 06:00:00 14.1 20 Noroeste 36 Noroeste 0 -- -- 92
2020-08-04 05:00:00 13.3 23 Noroeste 32 Noroeste 0 -- -- 93
2020-08-04 04:00:00 13.7 24 Noroeste 34 Noroeste 0 -- -- 86
2020-08-04 03:00:00 13.9 23 Noroeste 35 Noroeste 0 -- -- 85
2020-08-04 02:00:00 14 24 Noroeste 32 Noroeste 0 -- -- 84
2020-08-04 01:00:00 14 19 Noroeste 27 Noroeste 0 -- -- 82
2020-08-04 00:00:00 15.1 18 Noroeste 29 Noroeste 0 -- -- 77
2020-08-03 23:00:00 15.3 16 Oeste 34 Oeste 0 -- -- 75
2020-08-03 22:00:00 15.9 26 Noroeste 37 Noroeste 0 -- -- 72
2020-08-03 21:00:00 17.5 28 Noroeste 41 Noroeste 0 -- -- 65
2020-08-03 20:00:00 18.7 29 Noroeste 49 Norte 0 -- -- 60
2020-08-03 19:00:00 19.1 31 Norte 47 Norte 0 -- -- 59
2020-08-03 18:00:00 20.3 30 Noroeste 46 Noroeste 0 -- -- 55
2020-08-03 17:00:00 20 30 Noroeste 53 Noroeste 0 -- -- 55
2020-08-03 16:00:00 21.2 36 Noroeste 55 Norte 0 -- -- 51
2020-08-03 15:00:00 21.5 37 Noroeste 54 Noroeste 0 -- -- 52
2020-08-03 14:00:00 20.3 36 Noroeste 56 Noroeste 0 -- -- 56
2020-08-03 13:00:00 19.9 35 Norte 52 Noroeste 0 -- -- 55
2020-08-03 12:00:00 19.3 32 Noroeste 52 Noroeste 0 -- -- 53
2020-08-03 11:00:00 18.5 26 Noroeste 44 Noroeste 0 -- -- 57
2020-08-03 10:00:00 16.8 30 Noroeste 45 Noroeste 0 -- -- 64
2020-08-03 09:00:00 15.7 31 Noroeste 43 Noroeste 0 -- -- 72
2020-08-03 08:00:00 14.7 29 Noroeste 40 Noroeste 0 -- -- 79
2020-08-03 07:00:00 14.7 25 Noroeste 38 Noroeste 0 -- -- 79
2020-08-03 06:00:00 14.4 28 Noroeste 42 Noroeste 0 -- -- 80
2020-08-03 05:00:00 15.1 31 Noroeste 41 Noroeste 0 -- -- 77
2020-08-03 04:00:00 15.2 28 Noroeste 37 Noroeste 0 -- -- 75
2020-08-03 03:00:00 15.4 27 Noroeste 50 Noroeste 0 -- -- 72
2020-08-03 02:00:00 15.7 35 Noroeste 50 Noroeste 0 -- -- 73
2020-08-03 01:00:00 15.6 22 Noroeste 36 Noroeste 0 -- -- 75
2020-08-03 00:00:00 15.4 22 Noroeste 39 Noroeste 0 -- -- 77
2020-08-02 23:00:00 15.7 28 Noroeste 42 Noroeste 0 -- -- 75
2020-08-02 22:00:00 16.6 27 Noroeste 48 Noroeste 0 -- -- 70
2020-08-02 21:00:00 17.4 36 Norte 50 Noroeste 0 -- -- 67
2020-08-02 20:00:00 18.7 37 Noroeste 53 Noroeste 0 -- -- 63
2020-08-02 19:00:00 19.4 29 Norte 47 Noroeste 0 -- -- 60
2020-08-02 18:00:00 19.7 34 Noroeste 58 Noroeste 0 -- -- 58
2020-08-02 17:00:00 20.4 37 Noroeste 58 Noroeste 0 -- -- 58
2020-08-02 16:00:00 19.7 35 Norte 62 Norte 0 -- -- 62
2020-08-02 15:00:00 22.4 33 Noroeste 54 Noroeste 0 -- -- 54
2020-08-02 14:00:00 21.1 31 Noroeste 52 Norte 0 -- -- 60
2020-08-02 13:00:00 20.6 35 Norte 50 Norte 0 -- -- 62
2020-08-02 12:00:00 19.6 30 Noroeste 43 Noroeste 0 -- -- 68
2020-08-02 11:00:00 18.4 31 Noroeste 42 Noroeste 0 -- -- 72
2020-08-02 10:00:00 18.1 25 Noroeste 38 Noroeste 0 -- -- 77
2020-08-02 09:00:00 17.3 27 Noroeste 34 Noroeste 0 -- -- 81
2020-08-02 08:00:00 16.8 24 Noroeste 35 Noroeste 0 -- -- 83
2020-08-02 07:00:00 16.6 25 Noroeste 39 Noroeste 0 -- -- 85
2020-08-02 06:00:00 16.3 26 Noroeste 41 Noroeste 0 -- -- 86
2020-08-02 05:00:00 16.8 30 Noroeste 45 Noroeste 0 -- -- 81
2020-08-02 04:00:00 17.2 32 Noroeste 44 Noroeste 0 -- -- 83
2020-08-02 03:00:00 17.4 28 Noroeste 44 Noroeste 0 -- -- 84
2020-08-02 02:00:00 18 28 Noroeste 48 Noroeste 0 -- -- 83
2020-08-02 01:00:00 18.2 36 Noroeste 50 Noroeste 0 -- -- 84
2020-08-02 00:00:00 18.4 35 Noroeste 45 Noroeste 0 -- -- 84
2020-08-01 23:00:00 18.8 25 Noroeste 44 Noroeste 0 -- -- 82
2020-08-01 22:00:00 19.3 31 Noroeste 44 Noroeste 0 -- -- 79
2020-08-01 21:00:00 19.9 30 Noroeste 46 Noroeste 0 -- -- 74
2020-08-01 20:00:00 20.6 28 Noroeste 48 Noroeste 0 -- -- 70
2020-08-01 19:00:00 21.9 30 Noroeste 50 Noroeste 0 -- -- 66
2020-08-01 18:00:00 23 35 Noroeste 53 Noroeste 0 -- -- 64
2020-08-01 17:00:00 23.2 35 Noroeste 53 Noroeste 0 -- -- 64
2020-08-01 16:00:00 24.1 37 Noroeste 50 Noroeste 0 -- -- 63
2020-08-01 15:00:00 25.2 32 Noroeste 46 Oeste 0 -- -- 60
2020-08-01 14:00:00 24.9 29 Noroeste 44 Oeste 0 -- -- 62
2020-08-01 13:00:00 24.7 31 Noroeste 42 Noroeste 0 -- -- 62
2020-08-01 12:00:00 23.8 26 Noroeste 39 Oeste 0 -- -- 65
2020-08-01 11:00:00 22 26 Noroeste 37 Oeste 0 -- -- 72
2020-08-01 10:00:00 20.5 26 Noroeste 34 Noroeste 0 -- -- 78
2020-08-01 09:00:00 19.6 26 Noroeste 32 Noroeste 0 -- -- 82
2020-08-01 08:00:00 18.9 22 Noroeste 36 Noroeste 0 -- -- 87
2020-08-01 07:00:00 18.9 25 Noroeste 36 Noroeste 0 -- -- 89
2020-08-01 06:00:00 19.2 22 Noroeste 33 Noroeste 0 -- -- 88
2020-08-01 05:00:00 19.2 21 Noroeste 32 Noroeste 0 -- -- 88
2020-08-01 04:00:00 19.5 26 Noroeste 35 Oeste 0 -- -- 88
2020-08-01 03:00:00 19.7 28 Noroeste 35 Noroeste 0 -- -- 87
2020-08-01 02:00:00 20.1 26 Noroeste 35 Noroeste 0 -- -- 87
2020-08-01 01:00:00 20.4 28 Noroeste 38 Noroeste 0 -- -- 89
2020-08-01 00:00:00 21.1 24 Noroeste 39 Noroeste 0 -- -- 86
2020-07-31 23:00:00 22.5 26 Noroeste 36 Noroeste 0 -- -- 81
2020-07-31 22:00:00 25.3 24 Noroeste 34 Noroeste 0 -- -- 69
2020-07-31 21:00:00 30.1 16 Noroeste 27 Oeste 0 -- -- 45
2020-07-31 20:00:00 33.8 13 Noroeste 25 Oeste 0 -- -- 35
2020-07-31 19:00:00 35.4 12 Oeste 30 Oeste 0 -- -- 26
2020-07-31 18:00:00 36.3 9 Sudoeste 30 Oeste 0 -- -- 24
2020-07-31 17:00:00 36 17 Oeste 30 Oeste 0 -- -- 27
2020-07-31 16:00:00 36.3 10 Sudoeste 34 Oeste 0 -- -- 27
2020-07-31 15:00:00 35.7 17 Oeste 30 Oeste 0 -- -- 28
2020-07-31 14:00:00 34.2 19 Sur 36 Sudeste 0 -- -- 28
2020-07-31 13:00:00 33.4 23 Sudeste 38 Sudeste 0 -- -- 29
2020-07-31 12:00:00 31.8 14 Sur 37 Sudeste 0 -- -- 35
2020-07-31 11:00:00 30 23 Sur 36 Sur 0 -- -- 35
2020-07-31 10:00:00 29.3 13 Sudeste 24 Sudeste 0 -- -- 37
2020-07-31 09:00:00 25.3 9 Sur 16 Sudeste 0 -- -- 49
2020-07-31 08:00:00 23.3 7 Sur 28 Este 0 -- -- 52
2020-07-31 07:00:00 24.4 30 Sudeste 43 Este 0 -- -- 47
2020-07-31 06:00:00 23.1 22 Sudeste 45 Sudeste 0 -- -- 53
2020-07-31 05:00:00 23.3 13 Este 21 Este 0 -- -- 54
2020-07-31 04:00:00 20.3 10 Sudeste 12 Sudeste 0 -- -- 68
2020-07-31 03:00:00 21.2 10 Sudeste 14 Este 0 -- -- 65
2020-07-31 02:00:00 21.7 11 Este 26 Sur 0 -- -- 66
2020-07-31 01:00:00 22.2 19 Sudeste 31 Sudeste 0 -- -- 67
2020-07-31 00:00:00 23.2 11 Este 21 Este 0 -- -- 61
2020-07-30 23:00:00 24 9 Este 43 Sudoeste 0 -- -- 56
2020-07-30 22:00:00 22.5 17 Sur 28 Sur 0 -- -- 63
2020-07-30 21:00:00 23.1 11 Norte 48 Oeste 0 -- -- 59
2020-07-30 20:00:00 23.8 23 Noroeste 41 Oeste 0 -- -- 58
2020-07-30 19:00:00 24.4 30 Oeste 79 Sudoeste 2.8 -- -- 54
2020-07-30 18:00:00 34.5 23 Sudoeste 46 Sur 0 -- -- 27
2020-07-30 17:00:00 37.4 27 Sur 47 Sudeste 0 -- -- 24
2020-07-30 16:00:00 37.3 29 Sur 49 Sudeste 0 -- -- 24
2020-07-30 15:00:00 36.4 26 Sudeste 45 Este 0 -- -- 27
2020-07-30 14:00:00 35.1 24 Sudeste 44 Sudeste 0 -- -- 29
2020-07-30 13:00:00 33.6 31 Sudeste 47 Sudeste 0 -- -- 30
2020-07-30 12:00:00 32.1 26 Sudeste 40 Sudeste 0 -- -- 33
2020-07-30 11:00:00 29.6 29 Sudeste 38 Sudeste 0 -- -- 36
2020-07-30 10:00:00 27.9 25 Sudeste 33 Sudeste 0 -- -- 41
2020-07-30 09:00:00 21.5 6 Noroeste 18 Este 0 -- -- 73
2020-07-30 08:00:00 18.1 5 Sudeste 9 Este 0 -- -- 79
2020-07-30 07:00:00 19.7 9 Este 12 Sudeste 0 -- -- 70
2020-07-30 06:00:00 17.4 6 Sudeste 11 Este 0 -- -- 85
2020-07-30 05:00:00 17.9 5 Sudeste 7 Sudeste 0 -- -- 86
2020-07-30 04:00:00 18.5 0 Calma 6 Este 0 -- -- 84
2020-07-30 03:00:00 18.9 6 Sudeste 13 Este 0 -- -- 82
2020-07-30 02:00:00 19 6 Este 13 Sudeste 0 -- -- 83
2020-07-30 01:00:00 19.9 5 Sudeste 7 Sudeste 0 -- -- 79
2020-07-30 00:00:00 21.5 3 Nordeste 6 Norte 0 -- -- 76
2020-07-29 23:00:00 22.9 7 Norte 18 Noroeste 0 -- -- 74
2020-07-29 22:00:00 24.3 16 Norte 35 Noroeste 0 -- -- 69
2020-07-29 21:00:00 26.8 27 Noroeste 38 Noroeste 0 -- -- 60
2020-07-29 20:00:00 32.2 12 Oeste 31 Oeste 0 -- -- 44
2020-07-29 19:00:00 33.4 11 Sur 25 Sur 0 -- -- 34
2020-07-29 18:00:00 32.9 14 Sudeste 32 Sur 0 -- -- 34
2020-07-29 17:00:00 32.7 18 Sudeste 35 Sudeste 0 -- -- 36
2020-07-29 16:00:00 32.5 16 Sur 28 Sur 0 -- -- 39
2020-07-29 15:00:00 30.9 19 Sudeste 35 Sudeste 0 -- -- 44
2020-07-29 14:00:00 27.7 10 Oeste 19 Sur 0 -- -- 53
2020-07-29 13:00:00 26.3 12 Noroeste 22 Noroeste 0 -- -- 56
2020-07-29 12:00:00 23.5 6 Noroeste 17 Noroeste 0 -- -- 63
2020-07-29 11:00:00 19.8 4 Noroeste 10 Noroeste 0 -- -- 76
2020-07-29 10:00:00 17.7 9 Noroeste 18 Noroeste 0 -- -- 85
2020-07-29 09:00:00 16.5 14 Noroeste 27 Noroeste 0 -- -- 90
2020-07-29 08:00:00 16 19 Noroeste 27 Noroeste 0.2 -- -- 92
2020-07-29 07:00:00 16.2 14 Noroeste 27 Noroeste 0 -- -- 91
2020-07-29 06:00:00 16.6 18 Noroeste 27 Noroeste 0 -- -- 89
2020-07-29 05:00:00 16.9 18 Noroeste 32 Noroeste 0 -- -- 87
2020-07-29 04:00:00 16.8 22 Noroeste 34 Noroeste 0 -- -- 88
2020-07-29 03:00:00 17.1 21 Noroeste 33 Noroeste 0 -- -- 86
2020-07-29 02:00:00 17.6 26 Noroeste 37 Noroeste 0 -- -- 85
2020-07-29 01:00:00 18.1 25 Noroeste 37 Noroeste 0 -- -- 86
2020-07-29 00:00:00 18.2 24 Noroeste 40 Oeste 0 -- -- 86
2020-07-28 23:00:00 19.1 27 Noroeste 40 Oeste 0 -- -- 84
2020-07-28 22:00:00 20.1 29 Noroeste 41 Noroeste 0 -- -- 81
2020-07-28 21:00:00 21.1 29 Noroeste 45 Noroeste 0 -- -- 77
2020-07-28 20:00:00 23 31 Noroeste 45 Noroeste 0 -- -- 69
2020-07-28 19:00:00 24.1 33 Noroeste 49 Oeste 0 -- -- 66
2020-07-28 18:00:00 26 31 Noroeste 44 Noroeste 0 -- -- 60
2020-07-28 17:00:00 26.6 29 Noroeste 42 Noroeste 0 -- -- 59
2020-07-28 16:00:00 27.3 33 Noroeste 49 Noroeste 0 -- -- 57
2020-07-28 15:00:00 27.7 28 Noroeste 42 Oeste 0 -- -- 56
2020-07-28 14:00:00 27.3 25 Noroeste 40 Oeste 0 -- -- 56
2020-07-28 13:00:00 26.4 22 Noroeste 32 Oeste 0 -- -- 59
2020-07-28 12:00:00 24.3 21 Noroeste 32 Noroeste 0 -- -- 67
2020-07-28 11:00:00 22.6 23 Noroeste 33 Noroeste 0 -- -- 72
2020-07-28 10:00:00 20.8 19 Noroeste 28 Noroeste 0 -- -- 77
2020-07-28 09:00:00 20 18 Noroeste 28 Noroeste 0 -- -- 80
2020-07-28 08:00:00 17.7 17 Noroeste 23 Noroeste 0 -- -- 89
2020-07-28 07:00:00 17.3 14 Noroeste 22 Noroeste 0 -- -- 89
2020-07-28 06:00:00 17.8 15 Noroeste 21 Noroeste 0 -- -- 86
2020-07-28 05:00:00 17.6 18 Noroeste 29 Noroeste 0 -- -- 87
2020-07-28 04:00:00 18 19 Noroeste 32 Noroeste 0 -- -- 85
2020-07-28 03:00:00 18.5 22 Noroeste 32 Noroeste 0 -- -- 82
2020-07-28 02:00:00 19 25 Noroeste 36 Noroeste 0 -- -- 82
2020-07-28 01:00:00 19.5 27 Noroeste 37 Noroeste 0 -- -- 83
2020-07-28 00:00:00 20.1 22 Noroeste 48 Oeste 0 -- -- 84
2020-07-27 23:00:00 20.7 37 Noroeste 50 Oeste 0 -- -- 84
2020-07-27 22:00:00 23.4 13 Norte 58 Noroeste 0 -- -- 78
2020-07-27 21:00:00 25.2 35 Noroeste 50 Noroeste 0 -- -- 71
2020-07-27 20:00:00 27.8 35 Noroeste 55 Noroeste 0 -- -- 62
2020-07-27 19:00:00 37 7 Sudeste 20 Sudeste 0 -- -- 27
2020-07-27 18:00:00 37.3 3 Sur 20 Sudeste 0 -- -- 26
2020-07-27 17:00:00 36.9 11 Sur 24 Sudeste 0 -- -- 28
2020-07-27 16:00:00 36.9 15 Sur 30 Sur 0 -- -- 30
2020-07-27 15:00:00 35.4 18 Sur 32 Sur 0 -- -- 33
2020-07-27 14:00:00 34.4 17 Sudeste 27 Sudeste 0 -- -- 38
2020-07-27 13:00:00 32 19 Sudeste 30 Sudeste 0 -- -- 43
2020-07-27 12:00:00 30 16 Sudeste 27 Sudeste 0 -- -- 52
2020-07-27 09:00:00 -- -- -- -- -- -- -- -- --
2020-07-27 08:00:00 18.2 4 Este 9 Este 0 -- -- 82
2020-07-27 07:00:00 16.4 5 Sudeste 9 Este 0 -- -- 86
2020-07-27 06:00:00 16.3 2 Este 11 Noroeste 0 -- -- 87
2020-07-27 05:00:00 17.6 2 Norte 7 Este 0 -- -- 82
2020-07-27 04:00:00 19.1 6 Sudeste 9 Sudeste 0 -- -- 75
2020-07-27 03:00:00 18.5 6 Este 12 Sudeste 0 -- -- 79
2020-07-27 02:00:00 17.5 10 Sudeste 12 Sudeste 0 -- -- 83
2020-07-27 01:00:00 18.2 9 Sudeste 10 Sudeste 0 -- -- 81
2020-07-27 00:00:00 19.3 4 Sudeste 8 Sur 0 -- -- 78
2020-07-26 23:00:00 21 4 Oeste 19 Noroeste 0 -- -- 74
2020-07-26 22:00:00 22.7 16 Noroeste 31 Oeste 0 -- -- 69
2020-07-26 21:00:00 25.2 24 Oeste 31 Oeste 0 -- -- 59
2020-07-26 20:00:00 27.9 16 Noroeste 32 Noroeste 0 -- -- 50
2020-07-26 19:00:00 29.5 23 Noroeste 32 Noroeste 0 -- -- 46
2020-07-26 18:00:00 30.9 18 Noroeste 30 Oeste 0 -- -- 43
2020-07-26 17:00:00 30.2 14 Noroeste 30 Oeste 0 -- -- 39
2020-07-26 16:00:00 30.3 18 Noroeste 29 Oeste 0 -- -- 39
2020-07-26 15:00:00 29.2 17 Noroeste 26 Noroeste 0 -- -- 40
2020-07-26 14:00:00 28.1 15 Noroeste 27 Noroeste 0 -- -- 43
2020-07-26 13:00:00 26.6 15 Noroeste 30 Noroeste 0 -- -- 47
2020-07-26 12:00:00 24 19 Noroeste 27 Noroeste 0 -- -- 55
2020-07-26 11:00:00 22.1 17 Noroeste 24 Noroeste 0 -- -- 63
2020-07-26 10:00:00 19.5 15 Noroeste 22 Noroeste 0 -- -- 71
2020-07-26 09:00:00 17.3 18 Noroeste 24 Noroeste 0 -- -- 80
2020-07-26 08:00:00 15.9 16 Noroeste 24 Noroeste 0 -- -- 85
2020-07-26 07:00:00 15.3 13 Noroeste 23 Noroeste 0 -- -- 86
2020-07-26 06:00:00 15.5 15 Noroeste 25 Noroeste 0 -- -- 85
2020-07-26 05:00:00 16 18 Noroeste 23 Noroeste 0 -- -- 84
2020-07-26 04:00:00 15.5 4 Noroeste 18 Noroeste 0 -- -- 89
2020-07-26 03:00:00 16.1 9 Noroeste 22 Noroeste 0 -- -- 89
2020-07-26 02:00:00 16.7 16 Noroeste 27 Noroeste 0 -- -- 88
2020-07-26 01:00:00 17.2 14 Noroeste 31 Noroeste 0 -- -- 87
2020-07-26 00:00:00 17.9 23 Noroeste 42 Noroeste 0 -- -- 85
2020-07-25 23:00:00 18.9 35 Noroeste 45 Noroeste 0 -- -- 82
2020-07-25 22:00:00 20.5 35 Oeste 46 Noroeste 0 -- -- 76
2020-07-25 21:00:00 24.3 32 Noroeste 42 Noroeste 0 -- -- 62
2020-07-25 20:00:00 29.7 24 Noroeste 36 Oeste 0 -- -- 44
2020-07-25 19:00:00 32.6 5 Norte 24 Nordeste 0 -- -- 28
2020-07-25 18:00:00 31.9 8 Norte 21 Oeste 0 -- -- 28
2020-07-25 17:00:00 32.6 8 Noroeste 27 Sur 0 -- -- 29
2020-07-25 16:00:00 31.3 12 Noroeste 26 Noroeste 0 -- -- 29
2020-07-25 15:00:00 30.6 14 Noroeste 28 Oeste 0 -- -- 35
2020-07-25 14:00:00 30.4 8 Noroeste 16 Noroeste 0 -- -- 34
2020-07-25 13:00:00 27.6 9 Noroeste 20 Noroeste 0 -- -- 41
2020-07-25 12:00:00 26.2 4 Sur 12 Sudeste 0 -- -- 45
2020-07-25 11:00:00 21.8 4 Sur 10 Noroeste 0 -- -- 55
2020-07-25 10:00:00 18.6 5 Noroeste 12 Noroeste 0 -- -- 67
2020-07-25 09:00:00 16 10 Noroeste 15 Noroeste 0 -- -- 78
2020-07-25 08:00:00 14.1 3 Noroeste 21 Noroeste 0 -- -- 88
2020-07-25 07:00:00 13.3 16 Noroeste 26 Noroeste 0 -- -- 90
2020-07-25 06:00:00 13.5 21 Noroeste 27 Noroeste 0 -- -- 89
2020-07-25 05:00:00 13.6 21 Noroeste 32 Noroeste 0 -- -- 88
2020-07-25 04:00:00 13.6 21 Noroeste 32 Noroeste 0 -- -- 87
2020-07-25 03:00:00 13.6 22 Noroeste 33 Noroeste 0 -- -- 88
2020-07-25 02:00:00 14.3 19 Noroeste 37 Noroeste 0 -- -- 85
2020-07-25 01:00:00 15 29 Noroeste 37 Noroeste 0 -- -- 82
2020-07-25 00:00:00 15.4 18 Noroeste 27 Noroeste 0 -- -- 82
2020-07-24 23:00:00 16.4 22 Noroeste 37 Noroeste 0 -- -- 78
2020-07-24 22:00:00 17.6 27 Noroeste 41 Noroeste 0 -- -- 74
2020-07-24 21:00:00 19.6 23 Noroeste 44 Noroeste 0 -- -- 66
2020-07-24 20:00:00 21.6 32 Noroeste 47 Noroeste 0 -- -- 59
2020-07-24 19:00:00 23.7 32 Noroeste 45 Noroeste 0 -- -- 53
2020-07-24 18:00:00 24.2 33 Noroeste 52 Noroeste 0 -- -- 51
2020-07-24 17:00:00 25.2 28 Noroeste 45 Noroeste 0 -- -- 49
2020-07-24 16:00:00 25.1 27 Noroeste 51 Noroeste 0 -- -- 47
2020-07-24 15:00:00 24.8 30 Noroeste 45 Noroeste 0 -- -- 46
2020-07-24 14:00:00 24.9 27 Noroeste 40 Noroeste 0 -- -- 47
2020-07-24 13:00:00 24.1 22 Noroeste 43 Noroeste 0 -- -- 46
2020-07-24 12:00:00 22.9 24 Noroeste 37 Noroeste 0 -- -- 52
2020-07-24 11:00:00 21.1 21 Noroeste 35 Noroeste 0 -- -- 58
2020-07-24 10:00:00 19.1 21 Noroeste 31 Noroeste 0 -- -- 62
2020-07-24 09:00:00 17.3 21 Noroeste 28 Noroeste 0 -- -- 66
2020-07-24 08:00:00 15.6 19 Noroeste 27 Noroeste 0 -- -- 75
2020-07-24 07:00:00 14.8 19 Noroeste 27 Noroeste 0 -- -- 80
2020-07-24 06:00:00 15.1 20 Noroeste 29 Noroeste 0 -- -- 80
2020-07-24 05:00:00 15.6 21 Noroeste 30 Noroeste 0 -- -- 79
2020-07-24 04:00:00 16 25 Noroeste 36 Noroeste 0 -- -- 77
2020-07-24 03:00:00 15.5 25 Noroeste 40 Noroeste 0 -- -- 78
2020-07-24 02:00:00 16.6 31 Noroeste 38 Noroeste 0 -- -- 68
2020-07-24 01:00:00 16.5 21 Noroeste 33 Noroeste 0 -- -- 69
2020-07-24 00:00:00 17.3 21 Noroeste 31 Noroeste 0 -- -- 65
2020-07-23 23:00:00 17.9 18 Noroeste 33 Noroeste 0 -- -- 66
2020-07-23 22:00:00 19.2 21 Noroeste 37 Noroeste 0 -- -- 70
2020-07-23 21:00:00 21.8 24 Noroeste 39 Noroeste 0 -- -- 69
2020-07-23 20:00:00 24.5 29 Noroeste 43 Noroeste 0 -- -- 62
2020-07-23 19:00:00 26 28 Noroeste 39 Noroeste 0 -- -- 58
2020-07-23 18:00:00 26.8 27 Noroeste 48 Noroeste 0 -- -- 57
2020-07-23 17:00:00 26.9 38 Oeste 49 Noroeste 0 -- -- 58
2020-07-23 16:00:00 27.5 30 Noroeste 41 Noroeste 0 -- -- 56
2020-07-23 15:00:00 27.5 28 Oeste 40 Oeste 0 -- -- 55
2020-07-23 14:00:00 26.8 24 Noroeste 39 Oeste 0 -- -- 59
2020-07-23 13:00:00 25.8 21 Noroeste 29 Noroeste 0 -- -- 62
2020-07-23 12:00:00 23.8 18 Noroeste 25 Oeste 0 -- -- 68
2020-07-23 11:00:00 21.3 9 Noroeste 17 Noroeste 0 -- -- 79
2020-07-23 10:00:00 19.4 10 Oeste 20 Noroeste 0 -- -- 86
2020-07-23 09:00:00 18.6 13 Noroeste 21 Noroeste 0 -- -- 89
2020-07-23 08:00:00 17.8 10 Noroeste 17 Noroeste 0 -- -- 93
2020-07-23 07:00:00 17 10 Norte 13 Norte 0 -- -- 95
2020-07-23 06:00:00 17.6 6 Norte 10 Norte 0 -- -- 95
2020-07-23 05:00:00 18.1 4 Sudeste 8 Oeste 0 -- -- 94
2020-07-23 04:00:00 18.4 6 Oeste 17 Noroeste 0 -- -- 92
2020-07-23 03:00:00 18.8 13 Noroeste 23 Noroeste 0 -- -- 91
2020-07-23 02:00:00 19.5 17 Noroeste 28 Oeste 0 -- -- 89
2020-07-23 01:00:00 19.7 21 Noroeste 32 Noroeste 0 -- -- 88
2020-07-23 00:00:00 20 26 Noroeste 34 Noroeste 0 -- -- 88
2020-07-22 23:00:00 21.1 24 Noroeste 35 Noroeste 0 -- -- 85
2020-07-22 22:00:00 22.5 25 Noroeste 36 Noroeste 0 -- -- 80
2020-07-22 21:00:00 25.1 26 Noroeste 37 Oeste 0 -- -- 69
2020-07-22 20:00:00 28.4 26 Noroeste 38 Oeste 0 -- -- 59
2020-07-22 19:00:00 32 9 Oeste 20 Sudeste 0 -- -- 28
2020-07-22 18:00:00 32.1 9 Sur 24 Sudeste 0 -- -- 26
2020-07-22 17:00:00 33.2 14 Sudeste 26 Sudeste 0 -- -- 26
2020-07-22 16:00:00 33.2 11 Sur 29 Sur 0 -- -- 31
2020-07-22 15:00:00 33.8 13 Sur 27 Sudeste 0 -- -- 29
2020-07-22 14:00:00 31 17 Sudeste 31 Sudeste 0 -- -- 35
2020-07-22 13:00:00 28.9 19 Sudeste 33 Sudeste 0 -- -- 39
2020-07-22 12:00:00 27.3 22 Sudeste 35 Este 0 -- -- 45
2020-07-22 11:00:00 25.6 4 Este 8 Sur 0 -- -- 59
2020-07-22 10:00:00 21 5 Noroeste 17 Noroeste 0 -- -- 80
2020-07-22 09:00:00 19.7 3 Sur 12 Sudeste 0 -- -- 83
2020-07-22 08:00:00 16.5 6 Sudeste 8 Este 0 -- -- 91
2020-07-22 07:00:00 16.3 5 Noroeste 12 Sudeste 0 -- -- 91
2020-07-22 06:00:00 16 10 Sudeste 13 Sudeste 0 -- -- 91
2020-07-22 05:00:00 16.5 7 Sudeste 12 Sudeste 0 -- -- 91
2020-07-22 04:00:00 17.6 9 Sudeste 14 Sudeste 0 -- -- 89
2020-07-22 03:00:00 17.8 14 Sudeste 19 Noroeste 0 -- -- 92
2020-07-22 02:00:00 18.5 20 Noroeste 34 Noroeste 0 -- -- 91
2020-07-22 01:00:00 18.1 10 Sudoeste 20 Noroeste 0 -- -- 89
2020-07-22 00:00:00 18.8 8 Sudeste 19 Sur 0.2 -- -- 84
2020-07-21 23:00:00 18.8 12 Sudeste 35 Sudoeste 1 -- -- 83
2020-07-21 22:00:00 20.9 17 Sudoeste 56 Sudoeste 1.2 -- -- 67
2020-07-21 21:00:00 22 15 Noroeste 44 Noroeste 0.2 -- -- 76
2020-07-21 20:00:00 22.8 35 Noroeste 46 Oeste 0 -- -- 72
2020-07-21 19:00:00 25.8 33 Noroeste 45 Noroeste 0 -- -- 63
2020-07-21 18:00:00 30.6 33 Oeste 43 Oeste 0 -- -- 48
2020-07-21 17:00:00 34.6 15 Sudeste 28 Sudeste 0 -- -- 28
2020-07-21 16:00:00 34.6 14 Este 33 Sudeste 0 -- -- 29
2020-07-21 15:00:00 34.2 16 Sudeste 33 Sur 0 -- -- 30
2020-07-21 14:00:00 32.2 19 Sur 30 Sudeste 0 -- -- 35
2020-07-21 13:00:00 30.1 16 Sudeste 33 Sudeste 0 -- -- 39
2020-07-21 12:00:00 28.7 22 Sudeste 32 Sur 0 -- -- 44
2020-07-21 11:00:00 26.2 15 Sur 26 Sudeste 0 -- -- 51
2020-07-21 10:00:00 22.8 3 Noroeste 7 Sudeste 0 -- -- 59
2020-07-21 09:00:00 18 2 Noroeste 5 Noroeste 0 -- -- 76
2020-07-21 08:00:00 15.3 0 Calma 7 Sudeste 0 -- -- 85
2020-07-21 07:00:00 13.8 6 Sudeste 10 Sudeste 0 -- -- 89
2020-07-21 06:00:00 14.3 5 Sudeste 8 Sudeste 0 -- -- 88
2020-07-21 05:00:00 14.8 5 Sudeste 7 Sudeste 0 -- -- 87
2020-07-21 04:00:00 15.3 5 Sudeste 6 Sudeste 0 -- -- 85
2020-07-21 03:00:00 15.8 3 Sudeste 5 Sudeste 0 -- -- 83
2020-07-21 02:00:00 16.6 0 Calma 11 Noroeste 0 -- -- 80
2020-07-21 01:00:00 17.4 9 Noroeste 21 Noroeste 0 -- -- 75
2020-07-21 00:00:00 18.2 17 Noroeste 26 Noroeste 0 -- -- 73
2020-07-20 23:00:00 19.5 20 Noroeste 38 Oeste 0 -- -- 72
2020-07-20 22:00:00 20.3 27 Noroeste 37 Noroeste 0 -- -- 71
2020-07-20 21:00:00 22.1 32 Noroeste 46 Oeste 0 -- -- 70
2020-07-20 20:00:00 24.8 36 Noroeste 45 Noroeste 0 -- -- 65
2020-07-20 19:00:00 27.9 29 Noroeste 38 Noroeste 0 -- -- 57
2020-07-20 18:00:00 30.6 24 Noroeste 41 Noroeste 0 -- -- 48
2020-07-20 17:00:00 34.3 14 Sur 32 Sudeste 0 -- -- 36
2020-07-20 16:00:00 33.8 12 Sur 29 Sudeste 0 -- -- 31
2020-07-20 15:00:00 32.7 15 Sudeste 27 Sudeste 0 -- -- 34
2020-07-20 14:00:00 32 12 Sur 25 Sudeste 0 -- -- 35
2020-07-20 13:00:00 29.9 11 Este 20 Este 0 -- -- 42
2020-07-20 12:00:00 28 7 Noroeste 16 Noroeste 0 -- -- 50
2020-07-20 11:00:00 25.1 9 Noroeste 16 Oeste 0 -- -- 56
2020-07-20 10:00:00 22.7 6 Noroeste 10 Oeste 0 -- -- 59
2020-07-20 09:00:00 19.8 4 Noroeste 5 Norte 0 -- -- 70
2020-07-20 08:00:00 16.3 5 Sudeste 8 Este 0 -- -- 83
2020-07-20 07:00:00 15.2 2 Sudeste 5 Sudeste 0 -- -- 87
2020-07-20 06:00:00 15.9 0 Calma 14 Noroeste 0 -- -- 86
2020-07-20 05:00:00 16.9 7 Noroeste 15 Noroeste 0 -- -- 80
2020-07-20 04:00:00 17.7 9 Noroeste 17 Noroeste 0 -- -- 77
2020-07-20 03:00:00 18.8 7 Noroeste 12 Noroeste 0 -- -- 75
2020-07-20 02:00:00 19.9 14 Noroeste 26 Noroeste 0 -- -- 72
2020-07-20 01:00:00 21.6 21 Noroeste 31 Noroeste 0 -- -- 68
2020-07-20 00:00:00 22.5 23 Noroeste 36 Noroeste 0 -- -- 65
2020-07-19 23:00:00 23.6 24 Noroeste 33 Oeste 0 -- -- 65
2020-07-19 22:00:00 25.6 17 Noroeste 30 Noroeste 0 -- -- 56
2020-07-19 21:00:00 28 20 Norte 38 Norte 0 -- -- 49
2020-07-19 20:00:00 30.2 16 Norte 35 Norte 0 -- -- 46
2020-07-19 19:00:00 33.2 8 Norte 20 Noroeste 0 -- -- 27
2020-07-19 18:00:00 33.8 12 Noroeste 27 Noroeste 0 -- -- 23
2020-07-19 17:00:00 33.8 9 Noroeste 22 Norte 0 -- -- 28
2020-07-19 16:00:00 33.9 10 Sudoeste 21 Sudoeste 0 -- -- 31
2020-07-19 15:00:00 32.5 9 Este 27 Sudeste 0 -- -- 33
2020-07-19 14:00:00 31.4 9 Sur 24 Sur 0 -- -- 39
2020-07-19 13:00:00 30.2 12 Sudeste 24 Sudeste 0 -- -- 43
2020-07-19 12:00:00 28.7 12 Sur 23 Sudeste 0 -- -- 46
2020-07-19 11:00:00 25.9 7 Oeste 12 Oeste 0 -- -- 56
2020-07-19 10:00:00 22.7 4 Noroeste 7 Noroeste 0 -- -- 64
2020-07-19 09:00:00 18.1 5 Noroeste 9 Noroeste 0 -- -- 77
2020-07-19 08:00:00 14.5 5 Este 9 Este 0 -- -- 87
2020-07-19 07:00:00 13.5 3 Sudeste 7 Sudeste 0 -- -- 89
2020-07-19 06:00:00 13.9 6 Sudeste 8 Este 0 -- -- 88
2020-07-19 05:00:00 13.8 2 Este 12 Sudeste 0 -- -- 89
2020-07-19 04:00:00 13.3 11 Sudeste 13 Sudeste 0 -- -- 89
2020-07-19 03:00:00 13.8 8 Sudeste 12 Sudeste 0 -- -- 88
2020-07-19 02:00:00 14.9 8 Sudeste 9 Sudeste 0 -- -- 84
2020-07-19 01:00:00 16.3 0 Calma 8 Oeste 0 -- -- 81
2020-07-19 00:00:00 18.3 11 Noroeste 22 Noroeste 0 -- -- 74
2020-07-18 23:00:00 20 18 Noroeste 22 Noroeste 0 -- -- 67
2020-07-18 22:00:00 21.2 16 Noroeste 27 Oeste 0 -- -- 62
2020-07-18 21:00:00 24.2 17 Noroeste 26 Noroeste 0 -- -- 54
2020-07-18 20:00:00 26.3 20 Noroeste 28 Noroeste 0 -- -- 48
2020-07-18 19:00:00 27.9 19 Noroeste 34 Noroeste 0 -- -- 45
2020-07-18 18:00:00 28.9 25 Noroeste 37 Noroeste 0 -- -- 43
2020-07-18 17:00:00 30.2 20 Oeste 31 Oeste 0 -- -- 40
2020-07-18 16:00:00 30 17 Noroeste 28 Noroeste 0 -- -- 39
2020-07-18 15:00:00 29.2 14 Noroeste 24 Oeste 0 -- -- 36
2020-07-18 14:00:00 28 12 Noroeste 19 Noroeste 0 -- -- 38
2020-07-18 13:00:00 26.1 8 Noroeste 18 Sudoeste 0 -- -- 42
2020-07-18 12:00:00 25.3 9 Oeste 22 Oeste 0 -- -- 48
2020-07-18 11:00:00 22 14 Noroeste 21 Noroeste 0 -- -- 57
2020-07-18 10:00:00 19.4 15 Noroeste 24 Noroeste 0 -- -- 66
2020-07-18 09:00:00 17.3 15 Noroeste 20 Noroeste 0 -- -- 76
2020-07-18 08:00:00 14.5 4 Norte 13 Noroeste 0 -- -- 86
2020-07-18 07:00:00 13.5 10 Noroeste 26 Noroeste 0 -- -- 87
2020-07-18 06:00:00 13.8 13 Noroeste 25 Noroeste 0 -- -- 88
2020-07-18 05:00:00 14.6 22 Noroeste 32 Oeste 0 -- -- 85
2020-07-18 04:00:00 14.7 22 Noroeste 35 Noroeste 0 -- -- 86
2020-07-18 03:00:00 15.1 19 Noroeste 31 Noroeste 0 -- -- 84
2020-07-18 02:00:00 15.1 22 Noroeste 31 Noroeste 0 -- -- 85
2020-07-18 01:00:00 15.7 21 Noroeste 28 Noroeste 0 -- -- 80
2020-07-18 00:00:00 15.9 18 Noroeste 29 Noroeste 0 -- -- 78
2020-07-17 23:00:00 16.4 19 Noroeste 31 Noroeste 0 -- -- 75
2020-07-17 22:00:00 17.4 21 Noroeste 45 Oeste 0 -- -- 72
2020-07-17 21:00:00 18.6 21 Noroeste 46 Noroeste 0 -- -- 67
2020-07-17 20:00:00 19.7 26 Noroeste 47 Noroeste 0 -- -- 63
2020-07-17 19:00:00 20.7 29 Noroeste 62 Norte 0 -- -- 59
2020-07-17 18:00:00 20.9 41 Norte 63 Noroeste 0 -- -- 56
2020-07-17 17:00:00 20.9 39 Noroeste 69 Norte 0 -- -- 56
2020-07-17 16:00:00 20.6 41 Norte 65 Noroeste 0 -- -- 56
2020-07-17 15:00:00 19.9 44 Noroeste 61 Noroeste 0 -- -- 58
2020-07-17 14:00:00 20.5 30 Norte 52 Noroeste 0 -- -- 55
2020-07-17 13:00:00 19.6 30 Noroeste 48 Norte 0 -- -- 58
2020-07-17 12:00:00 19 30 Noroeste 54 Noroeste 0 -- -- 62
2020-07-17 11:00:00 17 40 Norte 55 Norte 0 -- -- 66
2020-07-17 10:00:00 16.6 35 Norte 53 Norte 0 -- -- 68
2020-07-17 09:00:00 15.7 32 Noroeste 54 Noroeste 0 -- -- 73
2020-07-17 08:00:00 14.7 26 Noroeste 37 Noroeste 0 -- -- 78
2020-07-17 07:00:00 13.7 25 Noroeste 38 Noroeste 0 -- -- 84
2020-07-17 06:00:00 13.7 28 Noroeste 39 Noroeste 0 -- -- 84
2020-07-17 05:00:00 14.2 28 Noroeste 40 Noroeste 0 -- -- 83
2020-07-17 04:00:00 14 28 Noroeste 40 Noroeste 0 -- -- 85
2020-07-17 03:00:00 14 29 Noroeste 38 Noroeste 0 -- -- 85
2020-07-17 02:00:00 13.4 28 Noroeste 42 Noroeste 0 -- -- 88
2020-07-17 01:00:00 13.8 29 Noroeste 44 Noroeste 0 -- -- 86
2020-07-17 00:00:00 14.2 30 Noroeste 41 Noroeste 0 -- -- 83
2020-07-16 23:00:00 14.3 26 Noroeste 41 Noroeste 0 -- -- 83
2020-07-16 22:00:00 14.9 31 Noroeste 44 Noroeste 0 -- -- 81
2020-07-16 21:00:00 16 36 Noroeste 52 Noroeste 0 -- -- 76
2020-07-16 20:00:00 17 41 Noroeste 53 Noroeste 0 -- -- 74
2020-07-16 19:00:00 18.7 33 Noroeste 49 Noroeste 0 -- -- 69
2020-07-16 18:00:00 19.6 34 Noroeste 49 Noroeste 0 -- -- 66
2020-07-16 17:00:00 20.5 32 Noroeste 50 Noroeste 0 -- -- 62
2020-07-16 16:00:00 21.3 33 Noroeste 52 Noroeste 0 -- -- 61
2020-07-16 15:00:00 20.8 36 Noroeste 55 Noroeste 0 -- -- 62
2020-07-16 14:00:00 20.4 32 Noroeste 56 Noroeste 0 -- -- 62
2020-07-16 13:00:00 19.1 39 Noroeste 51 Noroeste 0 -- -- 64
2020-07-16 12:00:00 19.8 30 Noroeste 43 Noroeste 0 -- -- 60
2020-07-16 11:00:00 18.2 27 Noroeste 40 Noroeste 0 -- -- 65
2020-07-16 10:00:00 16.4 22 Norte 37 Noroeste 0 -- -- 69
2020-07-16 09:00:00 15.4 23 Noroeste 41 Noroeste 0 -- -- 76
2020-07-16 08:00:00 14.2 30 Noroeste 43 Noroeste 0 -- -- 81
2020-07-16 07:00:00 13.1 21 Noroeste 35 Noroeste 0 -- -- 82
2020-07-16 06:00:00 13.3 27 Noroeste 42 Noroeste 0 -- -- 85
2020-07-16 05:00:00 13.3 24 Noroeste 33 Noroeste 0 -- -- 83
2020-07-16 04:00:00 13.4 25 Noroeste 32 Noroeste 0 -- -- 83
2020-07-16 03:00:00 13.3 26 Noroeste 37 Noroeste 0 -- -- 80
2020-07-16 02:00:00 13.6 21 Noroeste 30 Noroeste 0 -- -- 83
2020-07-16 01:00:00 13.4 21 Noroeste 35 Noroeste 0 -- -- 80
2020-07-16 00:00:00 13.4 25 Noroeste 36 Noroeste 0 -- -- 80